sensor_id;sensor_type;location;lat;lon;timestamp;temperature;humidity
75430;DHT22;64127;51.488;5.462;2022-12-26T00:02:19;12.10;99.90
75430;DHT22;64127;51.488;5.462;2022-12-26T00:04:51;12.10;99.90
75430;DHT22;64127;51.488;5.462;2022-12-26T00:07:24;12.10;99.90
75430;DHT22;64127;51.488;5.462;2022-12-26T00:09:56;12.10;99.90
75430;DHT22;64127;51.488;5.462;2022-12-26T00:12:28;12.10;99.90
75430;DHT22;64127;51.488;5.462;2022-12-26T00:15:00;12.00;99.90
75430;DHT22;64127;51.488;5.462;2022-12-26T00:17:32;12.00;99.90
75430;DHT22;64127;51.488;5.462;2022-12-26T00:20:05;12.00;99.90
75430;DHT22;64127;51.488;5.462;2022-12-26T00:22:37;12.00;99.90
75430;DHT22;64127;51.488;5.462;2022-12-26T00:25:09;12.00;99.90
75430;DHT22;64127;51.488;5.462;2022-12-26T00:27:41;12.00;99.90
75430;DHT22;64127;51.488;5.462;2022-12-26T00:30:13;12.00;99.90
75430;DHT22;64127;51.488;5.462;2022-12-26T00:32:45;11.90;99.90
75430;DHT22;64127;51.488;5.462;2022-12-26T00:35:17;11.90;99.90
75430;DHT22;64127;51.488;5.462;2022-12-26T00:37:49;11.90;99.90
75430;DHT22;64127;51.488;5.462;2022-12-26T00:40:21;11.90;99.90
75430;DHT22;64127;51.488;5.462;2022-12-26T00:42:53;11.90;99.90
75430;DHT22;64127;51.488;5.462;2022-12-26T00:45:25;11.90;99.90
75430;DHT22;64127;51.488;5.462;2022-12-26T00:47:57;11.90;99.90
75430;DHT22;64127;51.488;5.462;2022-12-26T00:50:29;11.90;99.90
75430;DHT22;64127;51.488;5.462;2022-12-26T00:53:05;11.90;99.90
75430;DHT22;64127;51.488;5.462;2022-12-26T00:55:37;11.90;99.90
75430;DHT22;64127;51.488;5.462;2022-12-26T00:58:09;11.90;99.90
75430;DHT22;64127;51.488;5.462;2022-12-26T01:00:41;11.90;99.90
75430;DHT22;64127;51.488;5.462;2022-12-26T01:03:14;11.90;99.90
75430;DHT22;64127;51.488;5.462;2022-12-26T01:05:49;11.90;99.90
75430;DHT22;64127;51.488;5.462;2022-12-26T01:08:22;11.80;99.90
75430;DHT22;64127;51.488;5.462;2022-12-26T01:10:55;11.90;99.90
75430;DHT22;64127;51.488;5.462;2022-12-26T01:13:27;11.90;99.90
75430;DHT22;64127;51.488;5.462;2022-12-26T01:16:00;11.80;99.90
75430;DHT22;64127;51.488;5.462;2022-12-26T01:18:33;11.90;99.90
75430;DHT22;64127;51.488;5.462;2022-12-26T01:21:08;11.80;99.90
75430;DHT22;64127;51.488;5.462;2022-12-26T01:23:41;11.80;99.90
75430;DHT22;64127;51.488;5.462;2022-12-26T01:26:13;11.80;99.90
75430;DHT22;64127;51.488;5.462;2022-12-26T01:28:51;11.80;99.90
75430;DHT22;64127;51.488;5.462;2022-12-26T01:31:23;11.80;99.90
75430;DHT22;64127;51.488;5.462;2022-12-26T01:33:55;11.80;99.90
75430;DHT22;64127;51.488;5.462;2022-12-26T01:36:28;11.80;99.90
75430;DHT22;64127;51.488;5.462;2022-12-26T01:39:00;11.80;99.90
75430;DHT22;64127;51.488;5.462;2022-12-26T01:41:32;11.80;99.90
75430;DHT22;64127;51.488;5.462;2022-12-26T01:44:50;11.80;99.90
75430;DHT22;64127;51.488;5.462;2022-12-26T01:47:16;11.80;99.90
75430;DHT22;64127;51.488;5.462;2022-12-26T01:49:53;11.80;99.90
75430;DHT22;64127;51.488;5.462;2022-12-26T01:52:34;11.70;99.90
75430;DHT22;64127;51.488;5.462;2022-12-26T01:55:13;11.70;99.90
75430;DHT22;64127;51.488;5.462;2022-12-26T01:57:54;11.70;99.90
75430;DHT22;64127;51.488;5.462;2022-12-26T02:00:31;11.70;99.90
75430;DHT22;64127;51.488;5.462;2022-12-26T02:03:06;11.70;99.90
75430;DHT22;64127;51.488;5.462;2022-12-26T02:05:59;11.70;99.90
75430;DHT22;64127;51.488;5.462;2022-12-26T02:08:34;11.70;99.90
75430;DHT22;64127;51.488;5.462;2022-12-26T02:11:28;11.60;99.90
75430;DHT22;64127;51.488;5.462;2022-12-26T02:14:05;11.60;99.90
75430;DHT22;64127;51.488;5.462;2022-12-26T02:16:39;11.60;99.90
75430;DHT22;64127;51.488;5.462;2022-12-26T02:28:42;11.60;99.90
75430;DHT22;64127;51.488;5.462;2022-12-26T02:32:37;11.60;99.90
75430;DHT22;64127;51.488;5.462;2022-12-26T02:43:36;11.60;99.90
75430;DHT22;64127;51.488;5.462;2022-12-26T02:56:05;11.50;99.90
75430;DHT22;64127;51.488;5.462;2022-12-26T03:03:04;11.60;99.90
75430;DHT22;64127;51.488;5.462;2022-12-26T03:06:06;11.60;99.90
75430;DHT22;64127;51.488;5.462;2022-12-26T03:09:07;11.60;99.90
75430;DHT22;64127;51.488;5.462;2022-12-26T03:15:27;11.60;99.90
75430;DHT22;64127;51.488;5.462;2022-12-26T03:18:23;11.50;99.90
75430;DHT22;64127;51.488;5.462;2022-12-26T03:21:19;11.60;99.90
75430;DHT22;64127;51.488;5.462;2022-12-26T03:23:55;11.50;99.90
75430;DHT22;64127;51.488;5.462;2022-12-26T03:26:31;11.50;99.90
75430;DHT22;64127;51.488;5.462;2022-12-26T03:29:19;11.50;99.90
75430;DHT22;64127;51.488;5.462;2022-12-26T03:32:11;11.50;99.90
75430;DHT22;64127;51.488;5.462;2022-12-26T03:34:43;11.50;99.90
75430;DHT22;64127;51.488;5.462;2022-12-26T03:40:51;11.60;99.90
75430;DHT22;64127;51.488;5.462;2022-12-26T03:44:08;11.50;99.90
75430;DHT22;64127;51.488;5.462;2022-12-26T03:47:21;11.50;99.90
75430;DHT22;64127;51.488;5.462;2022-12-26T03:50:36;11.50;99.90
75430;DHT22;64127;51.488;5.462;2022-12-26T03:53:57;11.50;99.90
75430;DHT22;64127;51.488;5.462;2022-12-26T03:57:08;11.50;99.90
75430;DHT22;64127;51.488;5.462;2022-12-26T04:00:08;11.50;99.90
75430;DHT22;64127;51.488;5.462;2022-12-26T04:03:06;11.50;99.90
75430;DHT22;64127;51.488;5.462;2022-12-26T04:06:03;11.50;99.90
75430;DHT22;64127;51.488;5.462;2022-12-26T04:09:02;11.40;99.90
75430;DHT22;64127;51.488;5.462;2022-12-26T04:11:59;11.40;99.90
75430;DHT22;64127;51.488;5.462;2022-12-26T04:14:58;11.40;99.90
75430;DHT22;64127;51.488;5.462;2022-12-26T04:18:27;11.40;99.90
75430;DHT22;64127;51.488;5.462;2022-12-26T04:21:58;11.40;99.90
75430;DHT22;64127;51.488;5.462;2022-12-26T04:25:05;11.40;99.90
75430;DHT22;64127;51.488;5.462;2022-12-26T04:28:18;11.40;99.90
75430;DHT22;64127;51.488;5.462;2022-12-26T04:31:24;11.40;99.90
75430;DHT22;64127;51.488;5.462;2022-12-26T04:34:23;11.40;99.90
75430;DHT22;64127;51.488;5.462;2022-12-26T04:37:22;11.30;99.90
75430;DHT22;64127;51.488;5.462;2022-12-26T04:40:19;11.30;99.90
75430;DHT22;64127;51.488;5.462;2022-12-26T04:43:13;11.40;99.90
75430;DHT22;64127;51.488;5.462;2022-12-26T04:46:22;11.30;99.90
75430;DHT22;64127;51.488;5.462;2022-12-26T04:48:56;11.30;99.90
75430;DHT22;64127;51.488;5.462;2022-12-26T04:51:48;11.30;99.90
75430;DHT22;64127;51.488;5.462;2022-12-26T04:54:20;11.30;99.90
75430;DHT22;64127;51.488;5.462;2022-12-26T04:56:52;11.30;99.90
75430;DHT22;64127;51.488;5.462;2022-12-26T04:59:25;11.30;99.90
75430;DHT22;64127;51.488;5.462;2022-12-26T05:01:58;11.20;99.90
75430;DHT22;64127;51.488;5.462;2022-12-26T05:04:49;11.20;99.90
75430;DHT22;64127;51.488;5.462;2022-12-26T05:07:39;11.20;99.90
75430;DHT22;64127;51.488;5.462;2022-12-26T05:10:30;11.20;99.90
75430;DHT22;64127;51.488;5.462;2022-12-26T05:13:02;11.20;99.90
75430;DHT22;64127;51.488;5.462;2022-12-26T05:15:35;11.20;99.90
75430;DHT22;64127;51.488;5.462;2022-12-26T05:18:27;11.20;99.90
75430;DHT22;64127;51.488;5.462;2022-12-26T05:21:18;11.20;99.90
75430;DHT22;64127;51.488;5.462;2022-12-26T05:24:16;11.20;99.90
75430;DHT22;64127;51.488;5.462;2022-12-26T05:27:15;11.20;99.90
75430;DHT22;64127;51.488;5.462;2022-12-26T05:30:06;11.20;99.90
75430;DHT22;64127;51.488;5.462;2022-12-26T05:32:38;11.20;99.90
75430;DHT22;64127;51.488;5.462;2022-12-26T05:35:29;11.20;99.90
75430;DHT22;64127;51.488;5.462;2022-12-26T05:38:02;11.20;99.90
75430;DHT22;64127;51.488;5.462;2022-12-26T05:40:35;11.20;99.90
75430;DHT22;64127;51.488;5.462;2022-12-26T05:43:07;11.20;99.90
75430;DHT22;64127;51.488;5.462;2022-12-26T05:45:39;11.20;99.90
75430;DHT22;64127;51.488;5.462;2022-12-26T05:48:11;11.20;99.90
75430;DHT22;64127;51.488;5.462;2022-12-26T05:50:43;11.10;99.90
75430;DHT22;64127;51.488;5.462;2022-12-26T05:53:15;11.10;99.90
75430;DHT22;64127;51.488;5.462;2022-12-26T05:55:47;11.10;99.90
75430;DHT22;64127;51.488;5.462;2022-12-26T05:58:19;11.10;99.90
75430;DHT22;64127;51.488;5.462;2022-12-26T06:00:52;11.10;99.90
75430;DHT22;64127;51.488;5.462;2022-12-26T06:03:23;11.10;99.90
75430;DHT22;64127;51.488;5.462;2022-12-26T06:05:56;11.10;99.90
75430;DHT22;64127;51.488;5.462;2022-12-26T06:08:28;11.10;99.90
75430;DHT22;64127;51.488;5.462;2022-12-26T06:11:11;11.10;99.90
75430;DHT22;64127;51.488;5.462;2022-12-26T06:13:44;11.10;99.90
75430;DHT22;64127;51.488;5.462;2022-12-26T06:16:17;11.10;99.90
75430;DHT22;64127;51.488;5.462;2022-12-26T06:18:49;11.10;99.90
75430;DHT22;64127;51.488;5.462;2022-12-26T06:21:22;11.10;99.90
75430;DHT22;64127;51.488;5.462;2022-12-26T06:23:55;11.10;99.90
75430;DHT22;64127;51.488;5.462;2022-12-26T06:26:27;11.10;99.90
75430;DHT22;64127;51.488;5.462;2022-12-26T06:28:59;11.10;99.90
75430;DHT22;64127;51.488;5.462;2022-12-26T06:31:31;11.10;99.90
75430;DHT22;64127;51.488;5.462;2022-12-26T06:34:03;11.10;99.90
75430;DHT22;64127;51.488;5.462;2022-12-26T06:36:35;11.10;99.90
75430;DHT22;64127;51.488;5.462;2022-12-26T06:39:07;11.10;99.90
75430;DHT22;64127;51.488;5.462;2022-12-26T06:41:39;11.10;99.90
75430;DHT22;64127;51.488;5.462;2022-12-26T06:44:11;11.20;99.90
75430;DHT22;64127;51.488;5.462;2022-12-26T06:46:49;11.20;99.90
75430;DHT22;64127;51.488;5.462;2022-12-26T06:49:21;11.20;99.90
75430;DHT22;64127;51.488;5.462;2022-12-26T06:52:01;11.20;99.90
75430;DHT22;64127;51.488;5.462;2022-12-26T06:54:33;11.20;99.90
75430;DHT22;64127;51.488;5.462;2022-12-26T06:57:05;11.20;99.90
75430;DHT22;64127;51.488;5.462;2022-12-26T06:59:37;11.10;99.90
75430;DHT22;64127;51.488;5.462;2022-12-26T07:02:09;11.10;99.90
75430;DHT22;64127;51.488;5.462;2022-12-26T07:04:42;11.10;99.90
75430;DHT22;64127;51.488;5.462;2022-12-26T07:07:14;11.10;99.90
75430;DHT22;64127;51.488;5.462;2022-12-26T07:09:46;11.10;99.90
75430;DHT22;64127;51.488;5.462;2022-12-26T07:12:18;11.10;99.90
75430;DHT22;64127;51.488;5.462;2022-12-26T07:14:52;11.10;99.90
75430;DHT22;64127;51.488;5.462;2022-12-26T07:17:31;11.10;99.90
75430;DHT22;64127;51.488;5.462;2022-12-26T07:20:04;11.10;99.90
75430;DHT22;64127;51.488;5.462;2022-12-26T07:22:37;11.10;99.90
75430;DHT22;64127;51.488;5.462;2022-12-26T07:25:09;11.10;99.90
75430;DHT22;64127;51.488;5.462;2022-12-26T07:27:41;11.00;99.90
75430;DHT22;64127;51.488;5.462;2022-12-26T07:30:13;11.00;99.90
75430;DHT22;64127;51.488;5.462;2022-12-26T07:32:45;11.00;99.90
75430;DHT22;64127;51.488;5.462;2022-12-26T07:35:18;11.00;99.90
75430;DHT22;64127;51.488;5.462;2022-12-26T07:37:51;11.00;99.90
75430;DHT22;64127;51.488;5.462;2022-12-26T07:40:23;11.00;99.90
75430;DHT22;64127;51.488;5.462;2022-12-26T07:42:55;11.00;99.90
75430;DHT22;64127;51.488;5.462;2022-12-26T07:45:27;11.00;99.90
75430;DHT22;64127;51.488;5.462;2022-12-26T07:47:59;11.00;99.90
75430;DHT22;64127;51.488;5.462;2022-12-26T07:50:31;11.00;99.90
75430;DHT22;64127;51.488;5.462;2022-12-26T07:53:03;11.00;99.90
75430;DHT22;64127;51.488;5.462;2022-12-26T07:55:35;11.00;99.90
75430;DHT22;64127;51.488;5.462;2022-12-26T07:58:07;11.00;99.90
75430;DHT22;64127;51.488;5.462;2022-12-26T08:00:39;11.00;99.90
75430;DHT22;64127;51.488;5.462;2022-12-26T08:03:11;11.00;99.90
75430;DHT22;64127;51.488;5.462;2022-12-26T08:05:45;11.00;99.90
75430;DHT22;64127;51.488;5.462;2022-12-26T08:08:18;11.00;99.90
75430;DHT22;64127;51.488;5.462;2022-12-26T08:11:00;11.00;99.90
75430;DHT22;64127;51.488;5.462;2022-12-26T08:13:34;11.00;99.90
75430;DHT22;64127;51.488;5.462;2022-12-26T08:16:07;11.00;99.90
75430;DHT22;64127;51.488;5.462;2022-12-26T08:18:42;11.00;99.90
75430;DHT22;64127;51.488;5.462;2022-12-26T08:21:14;11.00;99.90
75430;DHT22;64127;51.488;5.462;2022-12-26T08:23:46;11.00;99.90
75430;DHT22;64127;51.488;5.462;2022-12-26T08:26:19;11.00;99.90
75430;DHT22;64127;51.488;5.462;2022-12-26T08:28:54;11.00;99.90
75430;DHT22;64127;51.488;5.462;2022-12-26T08:31:27;11.00;99.90
75430;DHT22;64127;51.488;5.462;2022-12-26T08:33:59;11.00;99.90
75430;DHT22;64127;51.488;5.462;2022-12-26T08:36:31;11.00;99.90
75430;DHT22;64127;51.488;5.462;2022-12-26T08:39:03;11.10;99.90
75430;DHT22;64127;51.488;5.462;2022-12-26T08:41:35;11.10;99.90
75430;DHT22;64127;51.488;5.462;2022-12-26T08:44:09;11.10;99.90
75430;DHT22;64127;51.488;5.462;2022-12-26T08:46:59;11.20;99.90
75430;DHT22;64127;51.488;5.462;2022-12-26T08:49:31;11.20;99.90
75430;DHT22;64127;51.488;5.462;2022-12-26T08:52:03;11.20;99.90
75430;DHT22;64127;51.488;5.462;2022-12-26T08:54:36;11.20;99.90
75430;DHT22;64127;51.488;5.462;2022-12-26T08:57:07;11.20;99.90
75430;DHT22;64127;51.488;5.462;2022-12-26T08:59:40;11.30;99.90
75430;DHT22;64127;51.488;5.462;2022-12-26T09:02:12;11.40;99.90
75430;DHT22;64127;51.488;5.462;2022-12-26T09:04:45;11.40;99.90
75430;DHT22;64127;51.488;5.462;2022-12-26T09:07:17;11.40;99.90
75430;DHT22;64127;51.488;5.462;2022-12-26T09:09:49;11.40;99.90
75430;DHT22;64127;51.488;5.462;2022-12-26T09:12:21;11.40;99.90
75430;DHT22;64127;51.488;5.462;2022-12-26T09:14:53;11.50;99.90
75430;DHT22;64127;51.488;5.462;2022-12-26T09:17:25;11.50;99.90
75430;DHT22;64127;51.488;5.462;2022-12-26T09:19:58;11.60;99.90
75430;DHT22;64127;51.488;5.462;2022-12-26T09:22:31;11.60;99.90
75430;DHT22;64127;51.488;5.462;2022-12-26T09:25:24;11.70;99.90
75430;DHT22;64127;51.488;5.462;2022-12-26T09:27:57;11.70;99.90
75430;DHT22;64127;51.488;5.462;2022-12-26T09:30:30;11.70;99.90
75430;DHT22;64127;51.488;5.462;2022-12-26T09:33:04;11.80;99.90
75430;DHT22;64127;51.488;5.462;2022-12-26T09:35:41;11.80;99.90
75430;DHT22;64127;51.488;5.462;2022-12-26T09:38:13;11.80;99.90
75430;DHT22;64127;51.488;5.462;2022-12-26T09:41:23;11.80;99.90
75430;DHT22;64127;51.488;5.462;2022-12-26T09:50:08;11.90;99.90
75430;DHT22;64127;51.488;5.462;2022-12-26T09:52:59;11.80;99.90
75430;DHT22;64127;51.488;5.462;2022-12-26T09:55:41;11.80;99.90
75430;DHT22;64127;51.488;5.462;2022-12-26T09:58:31;11.80;99.90
75430;DHT22;64127;51.488;5.462;2022-12-26T10:01:15;11.80;99.90
75430;DHT22;64127;51.488;5.462;2022-12-26T10:03:54;11.80;99.90
75430;DHT22;64127;51.488;5.462;2022-12-26T10:06:37;11.80;99.90
75430;DHT22;64127;51.488;5.462;2022-12-26T10:24:17;11.80;99.90
75430;DHT22;64127;51.488;5.462;2022-12-26T10:26:59;11.80;99.90
75430;DHT22;64127;51.488;5.462;2022-12-26T10:29:39;11.80;99.90
75430;DHT22;64127;51.488;5.462;2022-12-26T10:32:39;11.80;99.90
75430;DHT22;64127;51.488;5.462;2022-12-26T10:38:05;11.90;99.90
75430;DHT22;64127;51.488;5.462;2022-12-26T10:40:49;11.90;99.90
75430;DHT22;64127;51.488;5.462;2022-12-26T10:43:31;11.90;99.90
75430;DHT22;64127;51.488;5.462;2022-12-26T10:49:11;11.90;99.90
75430;DHT22;64127;51.488;5.462;2022-12-26T10:51:46;11.80;99.90
75430;DHT22;64127;51.488;5.462;2022-12-26T10:54:20;11.60;99.90
75430;DHT22;64127;51.488;5.462;2022-12-26T10:56:52;11.50;99.90
75430;DHT22;64127;51.488;5.462;2022-12-26T10:59:53;11.40;99.90
75430;DHT22;64127;51.488;5.462;2022-12-26T11:02:29;11.30;99.90
75430;DHT22;64127;51.488;5.462;2022-12-26T11:05:13;11.20;99.90
75430;DHT22;64127;51.488;5.462;2022-12-26T11:08:25;11.10;99.90
75430;DHT22;64127;51.488;5.462;2022-12-26T11:11:05;11.00;99.90
75430;DHT22;64127;51.488;5.462;2022-12-26T11:13:41;11.00;99.90
75430;DHT22;64127;51.488;5.462;2022-12-26T11:16:39;11.00;99.90
75430;DHT22;64127;51.488;5.462;2022-12-26T11:19:26;11.00;99.90
75430;DHT22;64127;51.488;5.462;2022-12-26T11:22:27;11.00;99.90
75430;DHT22;64127;51.488;5.462;2022-12-26T11:27:48;11.10;99.90
75430;DHT22;64127;51.488;5.462;2022-12-26T11:30:42;11.00;99.90
75430;DHT22;64127;51.488;5.462;2022-12-26T11:33:40;11.00;99.90
75430;DHT22;64127;51.488;5.462;2022-12-26T11:47:18;10.80;99.90
75430;DHT22;64127;51.488;5.462;2022-12-26T11:55:30;10.80;99.90
75430;DHT22;64127;51.488;5.462;2022-12-26T12:00:41;10.90;99.90
75430;DHT22;64127;51.488;5.462;2022-12-26T12:03:40;10.90;99.90
75430;DHT22;64127;51.488;5.462;2022-12-26T12:06:51;11.00;99.90
75430;DHT22;64127;51.488;5.462;2022-12-26T12:12:48;11.10;99.90
75430;DHT22;64127;51.488;5.462;2022-12-26T12:15:29;11.20;99.90
75430;DHT22;64127;51.488;5.462;2022-12-26T12:21:40;11.10;99.90
75430;DHT22;64127;51.488;5.462;2022-12-26T12:40:59;10.80;99.90
75430;DHT22;64127;51.488;5.462;2022-12-26T12:50:01;10.60;99.90
75430;DHT22;64127;51.488;5.462;2022-12-26T12:52:54;10.60;99.90
75430;DHT22;64127;51.488;5.462;2022-12-26T13:01:28;10.50;99.90
75430;DHT22;64127;51.488;5.462;2022-12-26T13:04:10;10.40;99.90
75430;DHT22;64127;51.488;5.462;2022-12-26T13:07:16;10.40;99.90
75430;DHT22;64127;51.488;5.462;2022-12-26T13:09:59;10.30;99.90
75430;DHT22;64127;51.488;5.462;2022-12-26T13:12:37;10.30;99.90
75430;DHT22;64127;51.488;5.462;2022-12-26T13:15:34;10.40;99.90
75430;DHT22;64127;51.488;5.462;2022-12-26T13:18:19;10.40;99.90
75430;DHT22;64127;51.488;5.462;2022-12-26T13:21:02;10.30;99.90
75430;DHT22;64127;51.488;5.462;2022-12-26T13:29:52;10.30;99.90
75430;DHT22;64127;51.488;5.462;2022-12-26T13:32:31;10.30;99.90
75430;DHT22;64127;51.488;5.462;2022-12-26T13:35:04;10.30;99.90
75430;DHT22;64127;51.488;5.462;2022-12-26T13:40:15;10.30;99.90
75430;DHT22;64127;51.488;5.462;2022-12-26T13:43:05;10.20;99.90
75430;DHT22;64127;51.488;5.462;2022-12-26T13:46:34;10.10;99.90
75430;DHT22;64127;51.488;5.462;2022-12-26T14:03:15;10.10;99.90
75430;DHT22;64127;51.488;5.462;2022-12-26T14:06:44;10.10;99.90
75430;DHT22;64127;51.488;5.462;2022-12-26T14:12:22;10.20;99.90
75430;DHT22;64127;51.488;5.462;2022-12-26T14:15:37;10.10;99.90
75430;DHT22;64127;51.488;5.462;2022-12-26T14:18:48;10.00;99.90
75430;DHT22;64127;51.488;5.462;2022-12-26T14:27:45;9.80;99.90
75430;DHT22;64127;51.488;5.462;2022-12-26T14:30:37;9.70;99.90
75430;DHT22;64127;51.488;5.462;2022-12-26T14:36:18;9.50;99.90
75430;DHT22;64127;51.488;5.462;2022-12-26T14:50:52;9.40;99.90
75430;DHT22;64127;51.488;5.462;2022-12-26T14:56:06;9.30;99.90
75430;DHT22;64127;51.488;5.462;2022-12-26T14:59:30;9.30;99.90
75430;DHT22;64127;51.488;5.462;2022-12-26T15:02:31;9.20;99.90
75430;DHT22;64127;51.488;5.462;2022-12-26T15:05:19;9.20;99.90
75430;DHT22;64127;51.488;5.462;2022-12-26T15:37:07;8.70;99.90
75430;DHT22;64127;51.488;5.462;2022-12-26T15:39:59;8.70;99.90
75430;DHT22;64127;51.488;5.462;2022-12-26T15:42:56;8.70;99.90
75430;DHT22;64127;51.488;5.462;2022-12-26T15:45:53;8.60;99.90
75430;DHT22;64127;51.488;5.462;2022-12-26T15:58:28;8.50;99.90
75430;DHT22;64127;51.488;5.462;2022-12-26T16:01:40;8.50;99.90
75430;DHT22;64127;51.488;5.462;2022-12-26T16:04:31;8.40;99.90
75430;DHT22;64127;51.488;5.462;2022-12-26T16:07:30;8.40;99.90
75430;DHT22;64127;51.488;5.462;2022-12-26T16:10:28;8.40;99.90
75430;DHT22;64127;51.488;5.462;2022-12-26T16:15:55;8.40;99.90
75430;DHT22;64127;51.488;5.462;2022-12-26T16:18:30;8.40;99.90
75430;DHT22;64127;51.488;5.462;2022-12-26T16:21:05;8.30;99.90
75430;DHT22;64127;51.488;5.462;2022-12-26T16:23:56;8.30;99.90
75430;DHT22;64127;51.488;5.462;2022-12-26T16:26:29;8.30;99.90
75430;DHT22;64127;51.488;5.462;2022-12-26T16:29:04;8.30;99.90
75430;DHT22;64127;51.488;5.462;2022-12-26T16:31:36;8.30;99.90
75430;DHT22;64127;51.488;5.462;2022-12-26T16:34:14;8.30;99.90
75430;DHT22;64127;51.488;5.462;2022-12-26T16:36:49;8.30;99.90
75430;DHT22;64127;51.488;5.462;2022-12-26T16:39:22;8.20;99.90
75430;DHT22;64127;51.488;5.462;2022-12-26T16:42:08;8.20;99.90
75430;DHT22;64127;51.488;5.462;2022-12-26T16:45:00;8.20;99.90
75430;DHT22;64127;51.488;5.462;2022-12-26T16:47:33;8.10;99.90
75430;DHT22;64127;51.488;5.462;2022-12-26T16:50:05;8.10;99.90
75430;DHT22;64127;51.488;5.462;2022-12-26T16:52:38;8.00;99.90
75430;DHT22;64127;51.488;5.462;2022-12-26T16:55:34;8.00;99.90
75430;DHT22;64127;51.488;5.462;2022-12-26T16:58:33;8.00;99.90
75430;DHT22;64127;51.488;5.462;2022-12-26T17:01:15;8.00;99.90
75430;DHT22;64127;51.488;5.462;2022-12-26T17:06:34;7.90;99.90
75430;DHT22;64127;51.488;5.462;2022-12-26T17:09:12;7.90;99.90
75430;DHT22;64127;51.488;5.462;2022-12-26T17:11:53;7.80;99.90
75430;DHT22;64127;51.488;5.462;2022-12-26T17:14:40;7.80;99.90
75430;DHT22;64127;51.488;5.462;2022-12-26T17:19:57;7.70;99.90
75430;DHT22;64127;51.488;5.462;2022-12-26T17:22:51;7.70;99.90
75430;DHT22;64127;51.488;5.462;2022-12-26T17:25:31;7.70;99.90
75430;DHT22;64127;51.488;5.462;2022-12-26T17:30:46;7.60;99.90
75430;DHT22;64127;51.488;5.462;2022-12-26T17:33:27;7.60;99.90
75430;DHT22;64127;51.488;5.462;2022-12-26T17:36:04;7.60;99.90
75430;DHT22;64127;51.488;5.462;2022-12-26T17:39:20;7.50;99.90
75430;DHT22;64127;51.488;5.462;2022-12-26T17:41:56;7.50;99.90
75430;DHT22;64127;51.488;5.462;2022-12-26T17:47:21;7.50;99.90
75430;DHT22;64127;51.488;5.462;2022-12-26T17:49:55;7.50;99.90
75430;DHT22;64127;51.488;5.462;2022-12-26T17:52:28;7.40;99.90
75430;DHT22;64127;51.488;5.462;2022-12-26T17:55:02;7.50;99.90
75430;DHT22;64127;51.488;5.462;2022-12-26T17:57:36;7.40;99.90
75430;DHT22;64127;51.488;5.462;2022-12-26T18:00:25;7.50;99.90
75430;DHT22;64127;51.488;5.462;2022-12-26T18:03:01;7.40;99.90
75430;DHT22;64127;51.488;5.462;2022-12-26T18:05:34;7.40;99.90
75430;DHT22;64127;51.488;5.462;2022-12-26T18:08:09;7.40;99.90
75430;DHT22;64127;51.488;5.462;2022-12-26T18:10:51;7.30;99.90
75430;DHT22;64127;51.488;5.462;2022-12-26T18:13:23;7.30;99.90
75430;DHT22;64127;51.488;5.462;2022-12-26T18:15:56;7.30;99.90
75430;DHT22;64127;51.488;5.462;2022-12-26T18:18:36;7.20;99.90
75430;DHT22;64127;51.488;5.462;2022-12-26T18:21:12;7.20;99.90
75430;DHT22;64127;51.488;5.462;2022-12-26T18:23:45;7.20;99.90
75430;DHT22;64127;51.488;5.462;2022-12-26T18:26:26;7.10;99.90
75430;DHT22;64127;51.488;5.462;2022-12-26T18:29:00;7.10;99.90
75430;DHT22;64127;51.488;5.462;2022-12-26T18:31:33;7.10;99.90
75430;DHT22;64127;51.488;5.462;2022-12-26T18:34:05;7.10;99.90
75430;DHT22;64127;51.488;5.462;2022-12-26T18:36:37;7.10;99.90
75430;DHT22;64127;51.488;5.462;2022-12-26T18:39:15;7.00;99.90
75430;DHT22;64127;51.488;5.462;2022-12-26T18:41:47;7.00;99.90
75430;DHT22;64127;51.488;5.462;2022-12-26T18:44:19;7.00;99.90
75430;DHT22;64127;51.488;5.462;2022-12-26T18:46:51;6.90;99.90
75430;DHT22;64127;51.488;5.462;2022-12-26T18:49:23;6.90;99.90
75430;DHT22;64127;51.488;5.462;2022-12-26T18:51:56;6.90;99.90
75430;DHT22;64127;51.488;5.462;2022-12-26T18:54:28;6.80;99.90
75430;DHT22;64127;51.488;5.462;2022-12-26T18:57:01;6.80;99.90
75430;DHT22;64127;51.488;5.462;2022-12-26T18:59:34;6.80;99.90
75430;DHT22;64127;51.488;5.462;2022-12-26T19:02:14;6.80;99.90
75430;DHT22;64127;51.488;5.462;2022-12-26T19:04:48;6.80;99.90
75430;DHT22;64127;51.488;5.462;2022-12-26T19:07:20;6.80;99.90
75430;DHT22;64127;51.488;5.462;2022-12-26T19:09:52;6.80;99.90
75430;DHT22;64127;51.488;5.462;2022-12-26T19:12:30;6.70;99.90
75430;DHT22;64127;51.488;5.462;2022-12-26T19:15:02;6.70;99.90
75430;DHT22;64127;51.488;5.462;2022-12-26T19:17:34;6.70;99.90
75430;DHT22;64127;51.488;5.462;2022-12-26T19:20:18;6.70;99.90
75430;DHT22;64127;51.488;5.462;2022-12-26T19:22:53;6.70;99.90
75430;DHT22;64127;51.488;5.462;2022-12-26T19:25:26;6.70;99.90
75430;DHT22;64127;51.488;5.462;2022-12-26T19:27:58;6.60;99.90
75430;DHT22;64127;51.488;5.462;2022-12-26T19:30:29;6.60;99.90
75430;DHT22;64127;51.488;5.462;2022-12-26T19:33:09;6.60;99.90
75430;DHT22;64127;51.488;5.462;2022-12-26T19:35:41;6.50;99.90
75430;DHT22;64127;51.488;5.462;2022-12-26T19:38:13;6.60;99.90
75430;DHT22;64127;51.488;5.462;2022-12-26T19:40:45;6.60;99.90
75430;DHT22;64127;51.488;5.462;2022-12-26T19:43:17;6.60;99.90
75430;DHT22;64127;51.488;5.462;2022-12-26T19:45:57;6.60;99.90
75430;DHT22;64127;51.488;5.462;2022-12-26T19:48:32;6.60;99.90
75430;DHT22;64127;51.488;5.462;2022-12-26T19:51:07;6.50;99.90
75430;DHT22;64127;51.488;5.462;2022-12-26T19:53:44;6.60;99.90
75430;DHT22;64127;51.488;5.462;2022-12-26T19:56:22;6.60;99.90
75430;DHT22;64127;51.488;5.462;2022-12-26T19:58:56;6.60;99.90
75430;DHT22;64127;51.488;5.462;2022-12-26T20:01:30;6.60;99.90
75430;DHT22;64127;51.488;5.462;2022-12-26T20:04:04;6.60;99.90
75430;DHT22;64127;51.488;5.462;2022-12-26T20:06:38;6.50;99.90
75430;DHT22;64127;51.488;5.462;2022-12-26T20:09:13;6.60;99.90
75430;DHT22;64127;51.488;5.462;2022-12-26T20:11:47;6.50;99.90
75430;DHT22;64127;51.488;5.462;2022-12-26T20:14:22;6.60;99.90
75430;DHT22;64127;51.488;5.462;2022-12-26T20:16:57;6.60;99.90
75430;DHT22;64127;51.488;5.462;2022-12-26T20:19:36;6.50;99.90
75430;DHT22;64127;51.488;5.462;2022-12-26T20:22:09;6.60;99.90
75430;DHT22;64127;51.488;5.462;2022-12-26T20:24:42;6.60;99.90
75430;DHT22;64127;51.488;5.462;2022-12-26T20:27:14;6.60;99.90
75430;DHT22;64127;51.488;5.462;2022-12-26T20:29:48;6.60;99.90
75430;DHT22;64127;51.488;5.462;2022-12-26T20:32:20;6.60;99.90
75430;DHT22;64127;51.488;5.462;2022-12-26T20:34:52;6.60;99.90
75430;DHT22;64127;51.488;5.462;2022-12-26T20:37:24;6.60;99.90
75430;DHT22;64127;51.488;5.462;2022-12-26T20:39:56;6.60;99.90
75430;DHT22;64127;51.488;5.462;2022-12-26T20:42:29;6.60;99.90
75430;DHT22;64127;51.488;5.462;2022-12-26T20:45:01;6.60;99.90